Time;durP1;ratioP1;P1;durP2;ratioP2;P2;SDS_P1;SDS_P2;PMS_P1;PMS_P2;Temp;Humidity;BMP_temperature;BMP_pressure;BME280_temperature;BME280_humidity;BME280_pressure;Samples;Min_cycle;Max_cycle;Signal;HPM_P1;HPM_P2
2022/09/12 00:01:25;;;;;;;14.73;8.75;;;11.70;79.50;;;;;;4958831;28;20023;-84
2022/09/12 00:03:57;;;;;;;15.57;9.00;;;11.60;78.90;;;;;;4960254;28;20027;-83
2022/09/12 00:06:29;;;;;;;14.98;10.35;;;11.60;79.70;;;;;;4962934;28;20022;-83
2022/09/12 00:08:57;;;;;;;11.45;9.30;;;11.50;79.70;;;;;;4969150;28;20108;-83
2022/09/12 00:11:26;;;;;;;12.23;9.00;;;11.50;80.30;;;;;;4965616;28;20063;-81
2022/09/12 00:14:00;;;;;;;14.30;9.40;;;11.60;81.00;;;;;;4956993;28;20027;-82
2022/09/12 00:16:29;;;;;;;12.38;9.80;;;11.60;81.30;;;;;;4957123;28;20047;-83
2022/09/12 00:18:56;;;;;;;16.23;9.75;;;11.60;81.60;;;;;;4957739;28;20109;-81
2022/09/12 00:21:23;;;;;;;15.27;9.52;;;11.60;82.00;;;;;;4956485;28;20466;-83
2022/09/12 00:23:50;;;;;;;15.00;9.50;;;11.60;81.90;;;;;;4957451;28;20031;-83
2022/09/12 00:26:18;;;;;;;14.50;10.13;;;11.60;81.60;;;;;;4957280;29;20032;-80
2022/09/12 00:28:44;;;;;;;;;;;11.60;82.10;;;;;;4947788;29;20293;-84
2022/09/12 00:31:13;;;;;;;14.23;10.30;;;11.50;81.40;;;;;;4966418;29;19907;-82
2022/09/12 00:33:41;;;;;;;19.67;9.85;;;11.50;82.30;;;;;;4957768;28;20031;-83
2022/09/12 00:36:10;;;;;;;13.63;9.20;;;11.50;82.80;;;;;;4957808;28;20027;-83
2022/09/12 00:38:37;;;;;;;14.80;10.00;;;11.50;82.80;;;;;;4972474;28;20033;-83
2022/09/12 00:41:07;;;;;;;15.82;10.73;;;11.50;82.90;;;;;;4960492;28;20496;-83
2022/09/12 00:43:42;;;;;;;15.65;9.45;;;11.50;83.60;;;;;;4961559;28;20440;-84
2022/09/12 00:46:29;;;;;;;16.20;10.57;;;11.40;84.10;;;;;;4955077;29;20047;-82
2022/09/12 00:49:03;;;;;;;14.27;10.73;;;11.40;84.50;;;;;;4956479;28;20090;-82
2022/09/12 00:51:31;;;;;;;12.02;9.73;;;11.50;84.90;;;;;;4956344;28;20019;-83
2022/09/12 00:54:01;;;;;;;21.45;11.05;;;11.40;84.70;;;;;;4956182;28;20027;-82
2022/09/12 00:56:28;;;;;;;16.60;10.82;;;11.40;84.70;;;;;;4959118;28;20071;-82
2022/09/12 00:59:09;;;;;;;14.95;11.35;;;11.40;84.80;;;;;;4955319;28;20024;-83
2022/09/12 01:01:36;;;;;;;13.35;10.52;;;11.40;85.40;;;;;;4955789;28;20020;-83
2022/09/12 01:04:02;;;;;;;18.87;11.17;;;11.40;85.70;;;;;;4956275;28;20066;-82
2022/09/12 01:06:35;;;;;;;15.15;10.50;;;11.40;85.90;;;;;;4956739;28;20079;-82
2022/09/12 01:09:03;;;;;;;13.77;10.18;;;11.40;86.30;;;;;;4956954;28;20028;-83
2022/09/12 01:11:34;;;;;;;14.68;10.38;;;11.40;86.30;;;;;;4955826;28;20023;-81
2022/09/12 01:14:00;;;;;;;14.82;9.20;;;11.50;86.10;;;;;;4956116;28;20027;-82
2022/09/12 01:16:26;;;;;;;14.70;9.80;;;11.50;85.90;;;;;;4956107;29;20027;-82
2022/09/12 01:19:13;;;;;;;12.73;9.40;;;11.50;85.70;;;;;;4956360;29;20102;-83
2022/09/12 01:21:55;;;;;;;;;;;11.50;85.80;;;;;;4970845;28;20034;-84
2022/09/12 01:24:51;;;;;;;12.15;8.40;;;11.50;85.00;;;;;;4954853;28;19907;-83
2022/09/12 01:27:29;;;;;;;13.50;8.77;;;11.40;85.40;;;;;;4955490;29;20027;-83
2022/09/12 01:30:24;;;;;;;10.10;8.48;;;11.40;85.70;;;;;;4971692;28;20023;-82
2022/09/12 01:33:15;;;;;;;9.85;7.95;;;11.40;85.90;;;;;;4954849;28;20538;-83
2022/09/12 01:36:05;;;;;;;10.20;8.30;;;11.30;85.70;;;;;;4955797;28;20094;-82
2022/09/12 01:38:38;;;;;;;12.52;8.63;;;11.30;85.90;;;;;;4955610;29;20031;-82
2022/09/12 01:41:25;;;;;;;12.18;8.85;;;11.30;86.40;;;;;;4954951;28;20051;-83
2022/09/12 01:44:01;;;;;;;11.85;8.75;;;11.30;86.60;;;;;;4955572;28;20041;-82
2022/09/12 01:46:44;;;;;;;12.13;8.63;;;11.30;86.90;;;;;;4942536;29;20043;-83
2022/09/12 01:49:10;;;;;;;10.07;9.00;;;11.30;87.70;;;;;;4955360;29;20119;-84
2022/09/12 01:51:43;;;;;;;11.40;8.65;;;11.30;87.30;;;;;;4955635;29;20106;-83
2022/09/12 01:54:19;;;;;;;12.70;8.60;;;11.30;87.60;;;;;;4956136;28;20026;-83
2022/09/12 01:56:49;;;;;;;10.90;7.93;;;11.30;87.60;;;;;;4956916;29;20027;-82
2022/09/12 01:59:44;;;;;;;9.90;8.10;;;11.30;87.30;;;;;;4968864;28;20027;-83
2022/09/12 02:02:20;;;;;;;11.65;8.00;;;11.30;87.20;;;;;;4972607;28;20035;-82
2022/09/12 02:05:06;;;;;;;11.57;8.05;;;11.30;87.10;;;;;;4974384;29;20019;-83
2022/09/12 02:07:31;;;;;;;9.40;7.43;;;11.40;87.20;;;;;;4961850;28;20082;-82
2022/09/12 02:10:14;;;;;;;12.57;8.13;;;11.40;87.20;;;;;;4959753;29;20027;-83
2022/09/12 02:12:47;;;;;;;9.20;7.40;;;11.40;87.30;;;;;;4955347;28;20367;-83
2022/09/12 02:15:16;;;;;;;11.90;8.05;;;11.40;87.20;;;;;;4955343;29;20023;-84
2022/09/12 02:17:44;;;;;;;8.85;7.55;;;11.40;87.70;;;;;;4955278;29;20117;-83
2022/09/12 02:20:25;;;;;;;11.00;8.15;;;11.30;87.10;;;;;;4953778;28;20074;-83
2022/09/12 02:22:53;;;;;;;11.55;8.82;;;11.30;87.30;;;;;;4950096;28;20027;-83
2022/09/12 02:25:22;;;;;;;13.48;8.35;;;11.30;87.10;;;;;;4953694;29;20026;-83
2022/09/12 02:27:53;;;;;;;16.25;9.88;;;11.30;87.40;;;;;;4954573;29;20071;-82
2022/09/12 02:30:20;;;;;;;17.88;8.80;;;11.20;87.70;;;;;;4954745;29;20020;-84
2022/09/12 02:33:22;;;;;;;13.82;10.80;;;11.20;88.10;;;;;;4955722;28;20381;-83
2022/09/12 02:36:08;;;;;;;15.52;11.65;;;11.20;88.20;;;;;;4959884;29;20516;-82
2022/09/12 02:38:35;;;;;;;15.27;10.50;;;;;;;;;;4974482;28;20019;-82
2022/09/12 02:41:01;;;;;;;19.20;12.25;;;;;;;;;;4973613;28;20400;-83
2022/09/12 02:43:27;;;;;;;16.30;11.40;;;;;;;;;;4946071;29;20770;-84
2022/09/12 02:45:53;;;;;;;15.07;11.50;;;11.10;88.40;;;;;;4969697;28;20155;-83
2022/09/12 02:48:27;;;;;;;20.17;11.30;;;10.90;89.00;;;;;;4955359;28;20484;-82
2022/09/12 02:50:53;;;;;;;16.90;11.30;;;10.80;89.00;;;;;;4955569;28;20078;-83
2022/09/12 02:53:20;;;;;;;16.70;12.73;;;10.80;89.20;;;;;;4964743;28;20019;-85
2022/09/12 02:55:46;;;;;;;18.80;12.02;;;10.80;89.60;;;;;;4962709;28;20019;-83
2022/09/12 02:58:19;;;;;;;14.68;9.98;;;10.90;89.90;;;;;;4954722;28;20019;-84
2022/09/12 03:01:26;;;;;;;14.77;10.55;;;10.90;89.80;;;;;;4954367;28;20115;-83
2022/09/12 03:04:05;;;;;;;12.98;10.18;;;10.90;89.70;;;;;;4954931;29;20043;-84
2022/09/12 03:06:56;;;;;;;16.85;10.77;;;10.90;90.10;;;;;;4969554;28;20083;-83
2022/09/12 03:09:45;;;;;;;15.52;11.95;;;10.80;90.30;;;;;;4954674;28;20027;-84
2022/09/12 03:12:26;;;;;;;17.20;10.75;;;10.80;90.40;;;;;;4944621;29;20023;-84
2022/09/12 03:15:16;;;;;;;17.60;11.90;;;10.80;90.60;;;;;;4954572;28;20027;-84
2022/09/12 03:17:48;;;;;;;19.63;13.93;;;10.70;90.60;;;;;;4954792;28;20031;-85
2022/09/12 03:20:23;;;;;;;19.92;13.85;;;10.60;90.70;;;;;;4954115;28;20019;-84
2022/09/12 03:23:00;;;;;;;19.55;12.52;;;10.50;90.90;;;;;;4950348;28;20346;-85
2022/09/12 03:25:52;;;;;;;14.65;12.77;;;10.40;91.20;;;;;;4941088;29;20031;-85
2022/09/12 03:28:21;;;;;;;18.42;13.63;;;10.40;91.30;;;;;;4953925;28;20103;-83
2022/09/12 03:30:48;;;;;;;21.90;14.07;;;10.40;91.40;;;;;;4954742;28;20553;-84
2022/09/12 03:33:25;;;;;;;19.60;14.50;;;10.40;91.60;;;;;;4954181;28;20019;-83
2022/09/12 03:35:52;;;;;;;19.20;12.65;;;10.40;91.60;;;;;;4956403;28;20031;-83
2022/09/12 03:38:18;;;;;;;18.27;12.40;;;10.50;91.50;;;;;;4963351;28;20018;-84
2022/09/12 03:40:45;;;;;;;20.02;13.35;;;10.50;91.40;;;;;;4962055;28;20027;-83
2022/09/12 03:43:11;;;;;;;15.40;12.53;;;10.50;91.20;;;;;;4954818;28;20085;-82
2022/09/12 03:45:37;;;;;;;18.05;13.05;;;10.50;91.00;;;;;;4964331;28;20353;-80
2022/09/12 03:48:05;;;;;;;21.27;12.57;;;10.50;90.90;;;;;;4962426;28;20067;-82
2022/09/12 03:50:30;;;;;;;22.98;15.43;;;10.40;90.90;;;;;;4954614;28;20053;-82
2022/09/12 03:53:00;;;;;;;19.80;12.35;;;10.40;91.00;;;;;;4956622;28;20118;-82
2022/09/12 03:55:26;;;;;;;18.70;12.38;;;10.40;91.30;;;;;;4957253;28;20093;-80
2022/09/12 03:57:53;;;;;;;21.88;13.82;;;10.30;91.30;;;;;;4962790;28;20039;-82
2022/09/12 04:00:19;;;;;;;20.13;13.70;;;10.30;91.40;;;;;;4956672;28;20481;-82
2022/09/12 04:02:45;;;;;;;17.95;13.65;;;10.20;91.60;;;;;;4958229;28;20556;-83
2022/09/12 04:05:10;;;;;;;20.67;14.50;;;10.10;91.70;;;;;;4960651;28;20031;-83
2022/09/12 04:07:36;;;;;;;24.27;13.75;;;10.10;91.70;;;;;;4957647;28;20039;-83
2022/09/12 04:10:03;;;;;;;17.73;13.13;;;10.10;91.90;;;;;;4959568;28;20082;-82
2022/09/12 04:12:29;;;;;;;16.87;13.53;;;10.10;92.00;;;;;;4960393;28;20026;-82
2022/09/12 04:14:55;;;;;;;18.88;14.15;;;10.20;91.90;;;;;;4959245;28;20019;-82
2022/09/12 04:17:20;;;;;;;17.52;12.95;;;10.20;91.90;;;;;;4960931;28;20026;-83
2022/09/12 04:19:49;;;;;;;21.65;14.23;;;10.10;92.00;;;;;;4959880;28;20051;-84
2022/09/12 04:22:15;;;;;;;16.55;14.30;;;10.20;92.20;;;;;;4965595;28;20398;-83
2022/09/12 04:24:41;;;;;;;18.83;14.25;;;10.10;92.30;;;;;;4956057;28;20030;-83
2022/09/12 04:27:07;;;;;;;19.05;13.52;;;10.10;92.40;;;;;;4958146;28;20094;-83
2022/09/12 04:29:34;;;;;;;21.48;13.13;;;10.10;92.60;;;;;;4959553;29;20066;-84
2022/09/12 04:32:00;;;;;;;19.85;13.93;;;10.10;92.70;;;;;;4959686;28;20023;-83
2022/09/12 04:34:28;;;;;;;17.40;12.93;;;10.10;92.80;;;;;;4946820;29;20362;-84
2022/09/12 04:36:54;;;;;;;18.52;11.98;;;10.10;92.80;;;;;;4961786;28;20020;-84
2022/09/12 04:39:20;;;;;;;16.15;13.13;;;10.00;92.90;;;;;;4960469;28;20031;-84
2022/09/12 04:41:46;;;;;;;15.98;12.15;;;10.10;93.00;;;;;;4959121;28;20520;-83
2022/09/12 04:44:13;;;;;;;18.88;12.95;;;10.10;93.10;;;;;;4956045;28;20836;-83
2022/09/12 04:46:44;;;;;;;17.40;13.55;;;10.10;93.30;;;;;;4956459;28;20047;-83
2022/09/12 04:49:11;;;;;;;18.00;13.57;;;10.20;93.30;;;;;;4956812;28;20081;-83
2022/09/12 04:51:39;;;;;;;16.52;12.85;;;10.20;93.30;;;;;;4956703;28;20023;-84
2022/09/12 04:54:12;;;;;;;14.02;12.15;;;10.20;93.20;;;;;;4956809;28;20099;-84
2022/09/12 04:56:40;;;;;;;15.65;12.05;;;10.20;93.30;;;;;;4956800;28;20039;-84
2022/09/12 04:59:07;;;;;;;16.83;12.70;;;10.20;93.30;;;;;;4957063;28;20027;-85
2022/09/12 05:01:34;;;;;;;18.85;12.85;;;10.20;93.30;;;;;;4956365;28;20019;-85
2022/09/12 05:04:01;;;;;;;21.15;13.52;;;10.30;93.30;;;;;;4956289;28;20042;-86
2022/09/12 05:06:36;;;;;;;19.48;13.88;;;10.30;93.20;;;;;;4956382;28;20114;-84
2022/09/12 05:09:04;;;;;;;15.43;12.05;;;10.40;93.40;;;;;;4957039;28;20158;-86
2022/09/12 05:11:33;;;;;;;19.70;13.70;;;10.40;93.30;;;;;;4957397;28;20026;-86
2022/09/12 05:13:59;;;;;;;20.00;13.27;;;10.40;93.20;;;;;;4972630;28;20031;-84
2022/09/12 05:16:27;;;;;;;13.55;11.35;;;10.40;93.20;;;;;;4961207;28;20027;-84
2022/09/12 05:18:55;;;;;;;16.17;11.85;;;10.40;93.30;;;;;;4956468;28;20114;-85
2022/09/12 05:21:24;;;;;;;20.60;14.02;;;10.50;93.10;;;;;;4956625;28;20031;-82
2022/09/12 05:23:55;;;;;;;16.90;11.85;;;10.40;92.90;;;;;;4954162;28;20031;-84
2022/09/12 05:26:22;;;;;;;19.05;11.80;;;10.40;93.10;;;;;;4954282;29;20077;-84
2022/09/12 05:28:49;;;;;;;19.42;13.18;;;10.40;93.20;;;;;;4953028;28;20149;-82
2022/09/12 05:31:18;;;;;;;14.55;11.27;;;10.60;93.30;;;;;;4957084;28;20058;-82
2022/09/12 05:33:46;;;;;;;16.48;11.32;;;10.60;93.10;;;;;;4960246;28;20031;-82
2022/09/12 05:36:18;;;;;;;14.00;11.50;;;10.70;93.00;;;;;;4961892;28;20030;-81
2022/09/12 05:38:45;;;;;;;14.13;11.80;;;10.70;93.00;;;;;;4960776;28;20035;-82
2022/09/12 05:41:19;;;;;;;13.83;11.43;;;10.80;92.80;;;;;;4960165;28;20015;-82
2022/09/12 05:43:46;;;;;;;18.67;11.18;;;10.80;92.70;;;;;;4957546;28;20370;-80
2022/09/12 05:46:15;;;;;;;14.35;11.25;;;10.90;92.70;;;;;;4956414;28;20039;-84
2022/09/12 05:48:42;;;;;;;13.00;10.23;;;10.90;92.80;;;;;;4955290;28;20031;-81
2022/09/12 05:51:11;;;;;;;;;;;11.10;92.60;;;;;;4956350;28;20029;-82
2022/09/12 05:53:39;;;;;;;12.52;10.50;;;11.20;92.40;;;;;;4955730;28;19913;-85
2022/09/12 05:56:12;;;;;;;14.50;11.52;;;11.30;92.10;;;;;;4955787;28;20019;-87
2022/09/12 05:58:41;;;;;;;19.75;12.07;;;11.30;92.20;;;;;;4960126;28;20062;-86
2022/09/12 06:01:10;;;;;;;16.88;12.50;;;11.30;92.20;;;;;;4960292;28;20038;-85
2022/09/12 06:03:47;;;;;;;18.20;12.23;;;11.40;92.20;;;;;;4955948;28;20070;-86
2022/09/12 06:06:14;;;;;;;15.45;11.10;;;11.50;92.00;;;;;;4956787;28;20114;-86
2022/09/12 06:08:42;;;;;;;;;;;11.50;91.90;;;;;;4969672;28;20055;-86
2022/09/12 06:11:10;;;;;;;12.57;11.07;;;11.50;91.80;;;;;;4965987;28;19910;-85
2022/09/12 06:13:41;;;;;;;18.45;10.55;;;11.40;91.30;;;;;;4965173;28;20034;-85
2022/09/12 06:16:12;;;;;;;12.90;11.00;;;11.40;91.60;;;;;;4962431;28;20047;-86
2022/09/12 06:18:47;;;;;;;16.65;10.30;;;11.50;91.70;;;;;;4949918;29;20101;-88
2022/09/12 06:21:13;;;;;;;14.07;11.55;;;11.50;91.30;;;;;;4966509;28;20023;-85
2022/09/12 06:23:40;;;;;;;13.35;9.82;;;11.60;91.40;;;;;;4966482;28;20039;-85
2022/09/12 06:26:08;;;;;;;15.40;11.38;;;11.60;91.10;;;;;;4964764;28;20042;-85
2022/09/12 06:28:34;;;;;;;;;;;11.70;91.00;;;;;;4963946;28;20051;-87
2022/09/12 06:31:07;;;;;;;16.30;10.85;;;11.80;90.70;;;;;;4961087;28;20364;-87
2022/09/12 06:33:35;;;;;;;13.15;10.75;;;11.90;90.80;;;;;;4978951;28;20129;-86
2022/09/12 06:36:05;;;;;;;15.80;9.25;;;12.00;90.50;;;;;;4963086;28;20033;-86
2022/09/12 06:38:32;;;;;;;14.68;10.80;;;12.10;90.30;;;;;;4979886;28;20030;-85
2022/09/12 06:40:59;;;;;;;15.10;10.43;;;12.10;90.10;;;;;;4984348;28;20061;-86
2022/09/12 06:43:25;;;;;;;14.30;10.32;;;12.10;89.90;;;;;;4996417;28;20023;-85
2022/09/12 06:45:51;;;;;;;21.98;10.23;;;12.10;89.10;;;;;;4995087;28;20106;-85
2022/09/12 06:48:17;;;;;;;13.80;9.50;;;12.10;89.30;;;;;;4978016;28;20031;-85
2022/09/12 06:51:01;;;;;;;12.82;9.20;;;12.00;89.10;;;;;;4968756;28;20117;-85
2022/09/12 06:53:29;;;;;;;17.25;9.57;;;12.10;89.30;;;;;;4979249;28;20382;-86
2022/09/12 06:56:00;;;;;;;16.05;9.88;;;12.20;89.50;;;;;;4979103;28;20389;-86
2022/09/12 06:58:27;;;;;;;12.98;9.80;;;12.30;88.50;;;;;;4978531;28;20047;-86
2022/09/12 07:01:04;;;;;;;22.23;13.93;;;12.40;89.00;;;;;;4963727;28;20023;-84
2022/09/12 07:03:31;;;;;;;16.13;11.20;;;12.50;88.90;;;;;;4947368;28;20032;-85
2022/09/12 07:06:01;;;;;;;11.15;8.13;;;12.80;89.40;;;;;;4973514;28;20062;-86
2022/09/12 07:08:29;;;;;;;11.80;8.50;;;13.10;86.80;;;;;;4952951;28;20042;-86
2022/09/12 07:10:56;;;;;;;18.20;9.45;;;13.20;85.00;;;;;;4960264;28;20100;-86
2022/09/12 07:13:22;;;;;;;16.00;9.27;;;13.30;84.90;;;;;;4949119;28;20054;-85
2022/09/12 07:15:48;;;;;;;8.90;8.00;;;13.50;84.10;;;;;;4960178;28;20034;-87
2022/09/12 07:18:14;;;;;;;11.32;9.10;;;13.50;83.20;;;;;;4960084;28;20031;-85
2022/09/12 07:20:40;;;;;;;17.67;8.82;;;13.60;83.40;;;;;;4962741;29;20035;-85
2022/09/12 07:23:06;;;;;;;12.98;8.90;;;13.90;83.20;;;;;;4968824;29;20035;-86
2022/09/12 07:25:32;;;;;;;16.05;8.88;;;14.20;82.00;;;;;;4970578;29;20019;-84
2022/09/12 07:27:58;;;;;;;13.52;10.48;;;14.30;80.10;;;;;;4961240;28;20027;-84
2022/09/12 07:30:25;;;;;;;15.82;8.85;;;14.50;80.90;;;;;;4961263;28;20497;-86
2022/09/12 07:32:57;;;;;;;13.90;8.73;;;14.70;80.30;;;;;;4959705;28;20027;-85
2022/09/12 07:35:23;;;;;;;14.52;9.05;;;14.80;78.90;;;;;;4961164;28;20123;-86
2022/09/12 07:37:49;;;;;;;11.15;7.25;;;14.90;78.80;;;;;;4962400;28;20058;-85
2022/09/12 07:40:15;;;;;;;10.38;7.65;;;14.80;77.40;;;;;;4964019;28;20080;-87
2022/09/12 07:42:43;;;;;;;15.77;8.95;;;14.60;78.00;;;;;;4968856;28;20035;-86
2022/09/12 07:45:10;;;;;;;8.93;8.05;;;14.30;78.60;;;;;;4971671;29;20027;-86
2022/09/12 07:47:36;;;;;;;17.70;9.10;;;14.00;80.00;;;;;;4975376;28;20051;-85
2022/09/12 07:50:05;;;;;;;14.13;8.10;;;14.00;81.00;;;;;;4969821;28;20039;-86
2022/09/12 07:52:33;;;;;;;14.85;8.27;;;14.10;81.10;;;;;;4966178;28;20038;-86
2022/09/12 07:54:59;;;;;;;16.63;7.90;;;14.20;80.80;;;;;;4966022;29;20473;-86
2022/09/12 07:57:25;;;;;;;15.98;7.40;;;14.30;80.70;;;;;;4982823;28;20038;-87
2022/09/12 07:59:51;;;;;;;14.45;6.63;;;14.40;80.20;;;;;;4964824;28;20470;-88
2022/09/12 08:02:17;;;;;;;9.70;7.00;;;14.50;79.40;;;;;;4957080;29;20042;-87
2022/09/12 08:04:43;;;;;;;14.45;7.65;;;14.50;78.50;;;;;;4967102;28;20023;-86
2022/09/12 08:07:09;;;;;;;11.98;7.03;;;14.30;78.30;;;;;;4983220;28;20027;-85
2022/09/12 08:09:36;;;;;;;15.38;6.95;;;14.30;79.30;;;;;;4965883;28;20016;-85
2022/09/12 08:12:03;;;;;;;10.27;6.38;;;14.40;79.30;;;;;;4965855;29;20027;-85
2022/09/12 08:14:29;;;;;;;21.00;7.88;;;14.30;78.90;;;;;;4990415;28;20035;-86
2022/09/12 08:16:55;;;;;;;13.38;7.88;;;14.30;79.50;;;;;;4979842;28;20027;-84
2022/09/12 08:19:21;;;;;;;14.15;7.57;;;14.30;79.80;;;;;;4970592;28;20027;-86
2022/09/12 08:22:05;;;;;;;13.20;7.68;;;14.30;79.50;;;;;;4964589;29;20091;-86
2022/09/12 08:24:33;;;;;;;12.40;8.32;;;14.20;78.90;;;;;;4966470;29;20035;-86
2022/09/12 08:26:59;;;;;;;14.80;7.85;;;14.10;79.70;;;;;;4965546;28;20026;-86
2022/09/12 08:29:26;;;;;;;16.63;8.93;;;14.10;79.90;;;;;;4967086;28;20469;-85
2022/09/12 08:31:51;;;;;;;12.25;7.80;;;14.10;79.40;;;;;;4969275;28;20096;-84
2022/09/12 08:34:18;;;;;;;17.33;8.88;;;14.00;78.90;;;;;;4970348;29;20030;-84
2022/09/12 08:36:44;;;;;;;13.68;8.73;;;13.80;79.50;;;;;;4972354;28;20106;-85
2022/09/12 08:39:16;;;;;;;12.55;8.27;;;13.70;80.20;;;;;;4970059;29;20031;-85
2022/09/12 08:41:47;;;;;;;16.15;9.52;;;13.80;80.50;;;;;;4966116;29;20082;-85
2022/09/12 08:44:50;;;;;;;13.98;9.77;;;13.90;80.20;;;;;;4969323;29;20451;-85
2022/09/12 08:47:22;;;;;;;19.85;12.10;;;14.00;80.40;;;;;;4968379;28;20062;-85
2022/09/12 08:49:52;;;;;;;12.98;9.57;;;14.20;79.00;;;;;;4950327;29;20030;-86
2022/09/12 08:52:30;;;;;;;13.70;10.45;;;14.30;79.20;;;;;;4958361;29;20113;-87
2022/09/12 08:55:01;;;;;;;12.75;10.00;;;14.50;78.30;;;;;;4951189;29;20523;-84
2022/09/12 08:57:27;;;;;;;13.18;10.93;;;14.70;77.40;;;;;;4962979;28;20027;-86
2022/09/12 08:59:53;;;;;;;13.00;9.82;;;15.00;77.00;;;;;;4963682;29;20027;-86
2022/09/12 09:02:44;;;;;;;13.07;9.10;;;15.30;75.60;;;;;;4963276;28;20098;-86
2022/09/12 09:05:22;;;;;;;17.77;10.57;;;15.70;74.90;;;;;;4953293;28;20027;-85
2022/09/12 09:07:54;;;;;;;;;;;16.00;73.30;;;;;;4966182;28;20027;-86
2022/09/12 09:10:48;;;;;;;20.40;11.80;;;16.10;73.10;;;;;;4966806;29;19917;-85
2022/09/12 09:16:37;;;;;;;16.02;11.20;;;16.00;71.70;;;;;;4966979;29;20043;-87
2022/09/12 09:19:37;;;;;;;15.80;11.32;;;16.00;70.40;;;;;;4953086;29;20035;-85
2022/09/12 09:22:13;;;;;;;17.17;11.13;;;16.20;70.60;;;;;;4964896;28;20043;-86
2022/09/12 09:24:50;;;;;;;15.68;12.27;;;16.30;69.60;;;;;;4961698;29;20027;-88
2022/09/12 09:27:43;;;;;;;18.95;12.05;;;16.10;68.00;;;;;;4963797;28;20505;-86
2022/09/12 09:30:15;;;;;;;17.33;12.40;;;15.80;69.10;;;;;;4960247;29;20038;-85
2022/09/12 09:32:42;;;;;;;14.65;12.70;;;15.70;69.80;;;;;;4960718;28;20028;-86
2022/09/12 09:35:31;;;;;;;16.67;12.82;;;15.60;68.90;;;;;;4964302;28;20066;-86
2022/09/12 09:38:25;;;;;;;22.90;13.93;;;15.60;69.40;;;;;;4975746;28;20045;-85
2022/09/12 09:41:38;;;;;;;21.27;13.55;;;15.60;69.40;;;;;;4967242;29;20035;-86
2022/09/12 09:44:04;;;;;;;15.80;12.38;;;15.70;69.50;;;;;;4965274;28;20043;-85
2022/09/12 09:46:32;;;;;;;20.48;13.43;;;15.70;67.90;;;;;;4962090;28;20047;-88
2022/09/12 09:49:02;;;;;;;;;;;15.50;68.10;;;;;;4963499;28;20113;-86
2022/09/12 09:51:33;;;;;;;17.08;13.43;;;15.40;68.70;;;;;;4951281;29;19910;-85
2022/09/12 09:54:25;;;;;;;20.70;14.05;;;15.30;68.60;;;;;;4963367;28;20020;-87
2022/09/12 09:56:51;;;;;;;21.38;14.40;;;15.40;68.60;;;;;;4971004;28;20043;-87
2022/09/12 09:59:27;;;;;;;23.00;15.85;;;15.60;67.90;;;;;;4975391;28;20038;-85
2022/09/12 10:02:20;;;;;;;20.80;14.65;;;15.80;67.00;;;;;;4965556;28;20034;-87
2022/09/12 10:04:58;;;;;;;21.88;15.93;;;15.90;67.10;;;;;;4964546;28;20039;-86
2022/09/12 10:07:28;;;;;;;21.77;17.15;;;15.80;66.20;;;;;;4963955;28;20055;-87
2022/09/12 10:10:21;;;;;;;21.65;15.68;;;15.80;66.70;;;;;;4963297;28;20015;-86
2022/09/12 10:12:48;;;;;;;24.80;17.17;;;15.90;66.40;;;;;;4957775;28;20762;-86
2022/09/12 10:15:25;;;;;;;23.67;15.77;;;15.80;66.10;;;;;;4962898;28;20029;-85
2022/09/12 10:17:51;;;;;;;27.02;17.20;;;15.70;67.20;;;;;;4962457;28;20057;-85
2022/09/12 10:20:44;;;;;;;29.00;19.27;;;15.90;67.30;;;;;;4963890;29;20031;-85
2022/09/12 10:23:27;;;;;;;24.77;17.38;;;15.70;66.60;;;;;;4963309;29;20044;-85
2022/09/12 10:25:56;;;;;;;27.73;17.70;;;15.80;67.90;;;;;;4963276;28;20083;-86
2022/09/12 10:28:43;;;;;;;26.08;17.95;;;16.00;67.40;;;;;;4964163;28;20035;-87
2022/09/12 10:31:12;;;;;;;;;;;16.20;66.00;;;;;;4962162;28;20107;-85
2022/09/12 10:33:59;;;;;;;30.67;18.30;;;15.90;66.40;;;;;;4962267;29;19922;-85
2022/09/12 10:36:38;;;;;;;28.52;18.40;;;15.90;66.90;;;;;;4974396;28;20046;-87
2022/09/12 10:39:05;;;;;;;23.25;18.20;;;16.00;66.60;;;;;;4945569;29;20576;-84
2022/09/12 10:41:40;;;;;;;26.92;18.83;;;16.10;66.60;;;;;;4965448;28;20054;-86
2022/09/12 10:44:18;;;;;;;28.73;19.38;;;16.20;66.00;;;;;;4967278;28;20039;-85
2022/09/12 10:46:44;;;;;;;28.08;18.85;;;16.30;66.50;;;;;;4972252;28;20043;-85
2022/09/12 10:49:23;;;;;;;27.80;18.52;;;16.40;65.60;;;;;;4972478;28;20035;-86
2022/09/12 10:51:50;;;;;;;28.63;18.95;;;16.60;64.80;;;;;;4973993;28;20015;-85
2022/09/12 10:54:19;;;;;;;24.23;17.17;;;16.70;64.40;;;;;;4973907;28;20059;-83
2022/09/12 10:57:17;;;;;;;25.92;17.50;;;16.90;63.80;;;;;;4972704;28;20023;-86
2022/09/12 10:59:55;;;;;;;26.40;17.92;;;16.70;63.80;;;;;;4970547;29;20039;-86
2022/09/12 11:02:39;;;;;;;27.48;18.15;;;16.60;63.80;;;;;;4991099;28;20028;-87
2022/09/12 11:05:28;;;;;;;23.45;18.13;;;16.50;64.00;;;;;;4979681;28;20023;-86
2022/09/12 11:08:02;;;;;;;30.52;18.80;;;16.10;64.40;;;;;;4961574;28;20023;-85
2022/09/12 11:10:45;;;;;;;27.65;18.33;;;15.90;65.30;;;;;;4960538;29;20027;-87
2022/09/12 11:13:21;;;;;;;23.35;17.30;;;16.10;65.80;;;;;;4961093;28;20023;-86
2022/09/12 11:16:12;;;;;;;27.42;17.98;;;16.30;64.90;;;;;;4962761;28;20043;-86
2022/09/12 11:19:02;;;;;;;26.50;17.13;;;16.20;64.50;;;;;;4966485;28;20019;-86
2022/09/12 11:21:34;;;;;;;20.90;15.70;;;16.20;64.90;;;;;;4968174;28;20051;-85
2022/09/12 11:24:45;;;;;;;22.60;17.23;;;16.30;64.50;;;;;;4985319;28;20050;-85
2022/09/12 11:27:25;;;;;;;26.58;17.83;;;16.30;64.10;;;;;;4963701;28;20035;-87
2022/09/12 11:29:58;;;;;;;25.98;18.20;;;16.30;64.60;;;;;;4970740;28;20042;-85
2022/09/12 11:32:49;;;;;;;30.55;18.80;;;16.40;64.20;;;;;;4969081;28;19999;-85
2022/09/12 11:35:24;;;;;;;26.30;17.60;;;16.40;63.80;;;;;;4986833;28;20031;-86
2022/09/12 11:37:59;;;;;;;28.40;18.30;;;16.40;63.90;;;;;;4966259;28;20030;-86
2022/09/12 11:40:41;;;;;;;22.67;16.17;;;16.30;64.50;;;;;;4980313;28;20038;-86
2022/09/12 11:43:24;;;;;;;26.27;17.70;;;16.50;64.30;;;;;;4967778;28;20653;-85
2022/09/12 11:45:51;;;;;;;25.70;18.42;;;16.60;63.80;;;;;;4965390;29;20045;-85
2022/09/12 11:48:34;;;;;;;20.55;16.65;;;16.70;63.30;;;;;;4964831;28;20027;-85
2022/09/12 11:51:04;;;;;;;26.10;19.13;;;16.50;63.40;;;;;;4964478;28;20027;-86
2022/09/12 11:53:37;;;;;;;24.73;18.08;;;16.20;64.00;;;;;;4965704;28;20027;-85
2022/09/12 11:56:17;;;;;;;29.45;17.17;;;16.10;64.60;;;;;;4967115;28;20027;-84
2022/09/12 11:59:01;;;;;;;29.63;17.88;;;16.00;65.00;;;;;;4967929;28;20027;-85
2022/09/12 12:01:37;;;;;;;28.98;17.35;;;15.80;66.00;;;;;;4965135;29;20027;-87
2022/09/12 12:04:10;;;;;;;33.13;18.48;;;15.80;65.40;;;;;;4965389;28;20031;-85
2022/09/12 12:07:02;;;;;;;24.63;17.10;;;15.80;65.00;;;;;;4963524;28;20023;-86
2022/09/12 12:09:30;;;;;;;28.17;18.80;;;15.70;64.70;;;;;;4964013;28;20122;-87
2022/09/12 12:12:00;;;;;;;27.50;18.52;;;15.90;64.70;;;;;;4964740;28;20034;-85
2022/09/12 12:14:36;;;;;;;31.88;18.38;;;15.90;64.10;;;;;;4963935;28;20172;-86
2022/09/12 12:17:03;;;;;;;31.27;17.60;;;15.90;64.30;;;;;;4954809;29;20027;-85
2022/09/12 12:19:33;;;;;;;31.35;17.92;;;16.00;64.40;;;;;;4964589;29;20027;-84
2022/09/12 12:22:21;;;;;;;30.80;18.33;;;15.90;63.30;;;;;;4962892;28;20093;-86
2022/09/12 12:25:37;;;;;;;28.10;17.98;;;15.80;64.00;;;;;;4964041;29;20035;-87
2022/09/12 12:28:05;;;;;;;25.30;18.27;;;15.80;64.20;;;;;;4962434;28;20031;-84
2022/09/12 12:30:32;;;;;;;26.60;16.90;;;16.00;64.20;;;;;;4982405;28;20023;-86
2022/09/12 12:33:09;;;;;;;23.67;16.67;;;16.10;63.70;;;;;;4980790;28;20047;-86
2022/09/12 12:35:35;;;;;;;;;;;16.10;62.30;;;;;;4985592;28;20027;-85
2022/09/12 12:38:04;;;;;;;20.40;15.52;;;15.90;62.80;;;;;;4987110;28;19913;-85
2022/09/12 12:40:31;;;;;;;23.38;16.27;;;15.80;63.10;;;;;;4994736;28;20046;-85
2022/09/12 12:43:02;;;;;;;24.30;16.15;;;15.70;63.30;;;;;;4951870;28;20463;-86
2022/09/12 12:45:28;;;;;;;27.45;18.00;;;15.60;63.50;;;;;;4963253;28;20027;-86
2022/09/12 12:48:00;;;;;;;29.27;16.55;;;15.70;63.60;;;;;;4983352;28;20564;-85
2022/09/12 12:50:29;;;;;;;28.55;15.65;;;15.70;63.70;;;;;;4988561;28;20034;-87
2022/09/12 12:53:17;;;;;;;28.60;15.43;;;15.80;63.60;;;;;;4960228;28;20066;-86
2022/09/12 12:55:49;;;;;;;19.92;14.35;;;15.70;62.90;;;;;;4991401;28;20027;-86
2022/09/12 12:58:38;;;;;;;24.98;15.25;;;15.50;63.40;;;;;;4977894;28;20071;-84
2022/09/12 13:01:24;;;;;;;23.95;15.15;;;15.40;64.00;;;;;;4963385;28;20533;-85
2022/09/12 13:04:04;;;;;;;23.67;13.25;;;15.30;64.20;;;;;;4963396;29;20073;-86
2022/09/12 13:06:56;;;;;;;18.83;13.05;;;15.30;64.60;;;;;;4965494;28;20091;-85